Архив погоды в Кашине

Метеограмма Кашин
Пятница, 26 Апреля
Время местн. Темп Ветер Видим Явления Облачность нижн/средн/верх Атм. давл. Влжн Точка росы ВНГО R Сост. почвы Tg s
Напр Скр Прв ур.ст ур.м изм
12:00 +18.4° С 2 - 20 км - переменная облачность 755 767 -0.7 31% +0.9° более 2.5 км - - - -
09:00 +13.8° С-В 1 - 20 км - переменная облачность 755 768 +0.2 46% +2.5° более 2.5 км 0 Влажная (без луж) - -
06:00 +5.6° С,С-В 1 - 50 км - переменная облачность 755 768 -0.1 75% +1.5° более 2.5 км - - - -
03:00 +6° С,С-В 1 - 50 км - ясно 755 768 +0.6 76% +2.1° более 2.5 км - - - -
00:00 +8.3° З,С-З 1 - 50 км - ясно 755 767 +0.2 63% +1.6° более 2.5 км - - - -
Четверг, 25 Апреля
Время местн. Темп Ветер Видим Явления Облачность нижн/средн/верх Атм. давл. Влжн Точка росы ВНГО R Сост. почвы Tg s
Напр Скр Прв ур.ст ур.м изм
21:00 +15° В 2 - 50 км - переменная облачность 754 767 +0.1 39% +1° - 0 - - -
18:00 +21° С 2 - 50 км - ясно 754 767 -0.9 21% -2° более 2.5 км - - - -
15:00 +21.6° С,С-З 4 - 50 км - ясно 755 768 -0.8 20% -2.4° более 2.5 км - - - -
12:00 +20.3° С,С-З 3 - 50 км - ясно 756 768 -0.5 25% -0.1° более 2.5 км - - - -
09:00 +16.8° С-З 2 - 50 км - ясно 757 769 -0.2 35% +1.3° более 2.5 км 0 Влажная (без луж) - -
06:00 +5.7° З,С-З 1 - 50 км - ясно 757 770 0 80% +2.6° более 2.5 км - - - -
03:00 +5.8° штиль 0 - 50 км - ясно 757 770 +0.1 77% +2° более 2.5 км - - - -
00:00 +10° С,С-З 1 - 50 км - ясно 757 769 +0.2 56% +1.7° более 2.5 км - - - -
Среда, 24 Апреля
Время местн. Темп Ветер Видим Явления Облачность нижн/средн/верх Атм. давл. Влжн Точка росы ВНГО R Сост. почвы Tg s
Напр Скр Прв ур.ст ур.м изм
21:00 +14.4° С-З 1 - 50 км - ясно 756 769 -0.2 41% +1.5° более 2.5 км 0 - - -
18:00 +21.7° С-З 3 - 50 км - ясно 757 769 -1 25% +0.9° более 2.5 км - - - -
15:00 +22.5° С,С-З 3 - 50 км - ясно 758 770 -0.8 23% +0.5° более 2.5 км - - - -
12:00 +20.1° С-З 4 - 50 км - ясно 758 771 -0.3 26% -0.1° более 2.5 км - - - -
09:00 +15.3° З,С-З 3 - 50 км - ясно 759 771 0 40% +1.7° более 2.5 км 0 Влажная (без луж) - -
06:00 +7° З,С-З 2 - 50 км - ясно 759 772 +0.4 67% +1.4° более 2.5 км - - - -
03:00 +7° З,С-З 1 - 50 км - ясно 758 771 +0.4 67% +1.4° более 2.5 км - - - -
00:00 +9.5° С-З 1 - 50 км - ясно 758 771 +0.4 62% +2.5° более 2.5 км - - - -
Вторник, 23 Апреля
Время местн. Темп Ветер Видим Явления Облачность нижн/средн/верх Атм. давл. Влжн Точка росы ВНГО R Сост. почвы Tg s
Напр Скр Прв ур.ст ур.м изм
21:00 +13.7° З,С-З 2 - 50 км - переменная облачность 758 770 +0.3 49% +3.3° - 0 - - -
18:00 +18.5° С,С-З 3 - 50 км - переменная облачность 757 770 -0.5 32% +1.6° - - - - -
15:00 +18.6° С,С-В 3 - 50 км - переменная облачность 758 770 -0.1 31% +1° - - - - -
12:00 +17.9° З,С-З 4 - 50 км - переменная облачность 758 770 -0.3 32% +0.9° - - - - -
09:00 +12.5° З,С-З 3 - 50 км - преимущественно облачно 758 771 -0.2 42% - 0 Влажная (без луж) - -